Metar z połowy godziny Komunikat METAR ze strony awiacja.imgw.pl Metar G30 EPMO METAR EPMO 200330Z 25013KT 9999 BKN045 05/02 Q1013 =